createdAt,value
2023-04-20T00:02:04.856Z,59.98
2023-04-20T00:04:31.428Z,61.92
2023-04-20T00:06:57.983Z,61.04
2023-04-20T00:09:26.057Z,61.97
2023-04-20T00:11:52.817Z,63.23
2023-04-20T00:14:19.933Z,63.69
2023-04-20T00:16:46.749Z,64.23
2023-04-20T00:19:13.284Z,63.36
2023-04-20T00:21:39.788Z,64.90
2023-04-20T00:24:07.028Z,65.47
2023-04-20T00:26:33.978Z,66.18
2023-04-20T00:29:00.477Z,67.33
2023-04-20T00:31:27.042Z,66.51
2023-04-20T00:33:53.634Z,67.30
2023-04-20T00:36:20.135Z,68.89
2023-04-20T00:38:46.637Z,67.70
2023-04-20T00:41:13.176Z,68.68
2023-04-20T00:43:50.277Z,68.44
2023-04-20T00:46:16.817Z,68.47
2023-04-20T00:48:43.638Z,68.65
2023-04-20T00:51:10.637Z,67.94
2023-04-20T00:53:37.585Z,67.03
2023-04-20T00:56:04.767Z,66.24
2023-04-20T00:58:31.338Z,68.11
2023-04-20T01:00:57.834Z,66.23
2023-04-20T01:03:24.655Z,67.08
2023-04-20T01:05:51.621Z,66.97
2023-04-20T01:08:18.123Z,66.19
2023-04-20T01:10:46.128Z,66.70
2023-04-20T01:13:12.591Z,66.01
2023-04-20T01:15:39.109Z,65.16
2023-04-20T01:18:05.743Z,65.48
2023-04-20T01:20:32.406Z,65.14
2023-04-20T01:22:58.955Z,65.62
2023-04-20T01:25:25.460Z,65.93
2023-04-20T01:27:51.955Z,66.16
2023-04-20T01:30:18.409Z,67.05
2023-04-20T01:32:44.955Z,67.85
2023-04-20T01:35:11.985Z,66.93
2023-04-20T01:37:40.076Z,66.74
2023-04-20T01:40:09.862Z,67.86
2023-04-20T01:42:36.345Z,67.08
2023-04-20T01:45:05.055Z,67.11
2023-04-20T01:47:32.443Z,67.12
2023-04-20T01:49:58.938Z,66.32
2023-04-20T01:52:25.619Z,66.12
2023-04-20T01:54:52.109Z,65.87
2023-04-20T01:57:18.665Z,63.97
2023-04-20T01:59:45.249Z,63.37
2023-04-20T02:02:11.803Z,63.88
2023-04-20T02:04:38.327Z,63.92
2023-04-20T02:07:04.807Z,62.89
2023-04-20T02:09:31.264Z,63.59
2023-04-20T02:11:57.780Z,63.85
2023-04-20T02:14:24.275Z,64.18
2023-04-20T02:16:50.738Z,63.91
2023-04-20T02:19:17.445Z,63.27
2023-04-20T02:21:44.100Z,64.73
2023-04-20T02:24:10.591Z,62.55
2023-04-20T02:26:37.081Z,62.33
2023-04-20T02:29:03.636Z,61.33
2023-04-20T02:31:30.173Z,60.82
2023-04-20T02:33:56.749Z,59.75
2023-04-20T02:36:23.210Z,59.57
2023-04-20T02:38:49.665Z,58.87
2023-04-20T02:41:16.173Z,57.99
2023-04-20T02:43:42.669Z,58.80
2023-04-20T02:46:09.297Z,57.59
2023-04-20T02:48:35.823Z,58.35
2023-04-20T02:51:02.298Z,57.39
2023-04-20T02:53:28.767Z,57.58
2023-04-20T02:55:58.045Z,58.14
2023-04-20T02:58:24.545Z,58.85
2023-04-20T03:00:51.039Z,59.65
2023-04-20T03:03:18.198Z,59.68
2023-04-20T03:05:44.789Z,59.98
2023-04-20T03:08:11.242Z,60.85
2023-04-20T03:10:37.724Z,60.68
2023-04-20T03:13:04.220Z,60.03
2023-04-20T03:15:30.708Z,59.81
2023-04-20T03:17:57.281Z,61.38
2023-04-20T03:20:23.782Z,62.34
2023-04-20T03:22:50.271Z,63.58
2023-04-20T03:25:16.960Z,64.41
2023-04-20T03:27:45.561Z,65.30
2023-04-20T03:30:13.086Z,65.00
2023-04-20T03:32:40.186Z,65.10
2023-04-20T03:35:07.402Z,65.53
2023-04-20T03:37:34.016Z,66.12
2023-04-20T03:40:00.496Z,65.78
2023-04-20T03:42:27.042Z,65.61
2023-04-20T03:44:53.547Z,65.83
2023-04-20T03:47:20.050Z,65.82
2023-04-20T03:49:46.545Z,65.85
2023-04-20T03:52:13.069Z,65.61
2023-04-20T03:54:39.548Z,66.45
2023-04-20T03:57:06.160Z,65.87
2023-04-20T03:59:32.669Z,65.64
2023-04-20T04:02:00.114Z,65.09
2023-04-20T04:04:26.989Z,65.18
2023-04-20T04:06:53.638Z,64.43
2023-04-20T04:09:20.189Z,62.70
2023-04-20T04:11:46.752Z,61.96
2023-04-20T04:14:13.271Z,61.19
2023-04-20T04:16:39.855Z,60.71
2023-04-20T04:19:06.410Z,60.71
2023-04-20T04:21:34.151Z,60.17
2023-04-20T04:24:00.632Z,59.33
2023-04-20T04:26:27.097Z,59.10
2023-04-20T04:28:53.602Z,58.60
2023-04-20T04:31:20.133Z,59.14
2023-04-20T04:33:47.389Z,58.35
2023-04-20T04:36:13.853Z,58.84
2023-04-20T04:38:40.786Z,58.23
2023-04-20T04:41:07.302Z,57.69
2023-04-20T04:43:33.840Z,57.16
2023-04-20T04:46:06.731Z,57.21
2023-04-20T04:48:34.020Z,56.64
2023-04-20T04:51:00.627Z,57.05
2023-04-20T04:53:27.202Z,56.64
2023-04-20T04:55:55.160Z,56.68
2023-04-20T04:58:21.755Z,57.28
2023-04-20T05:00:48.251Z,56.64
2023-04-20T05:03:14.891Z,56.62
2023-04-20T05:05:41.669Z,56.77
2023-04-20T05:08:08.183Z,57.14
2023-04-20T05:10:34.670Z,56.58
2023-04-20T05:13:01.146Z,56.78
2023-04-20T05:15:27.601Z,56.60
2023-04-20T05:17:54.200Z,56.42
2023-04-20T05:20:20.958Z,56.37
2023-04-20T05:22:47.431Z,56.93
2023-04-20T05:25:14.169Z,56.32
2023-04-20T05:27:40.773Z,56.67
2023-04-20T05:30:19.451Z,56.22
2023-04-20T05:32:50.664Z,56.52
2023-04-20T05:35:18.457Z,56.64
2023-04-20T05:37:45.116Z,56.40
2023-04-20T05:40:12.770Z,56.66
2023-04-20T05:42:39.256Z,56.42
2023-04-20T05:45:06.079Z,56.46
2023-04-20T05:47:32.613Z,57.35
2023-04-20T05:50:00.896Z,57.85
2023-04-20T05:52:27.450Z,58.02
2023-04-20T05:54:53.912Z,57.70
2023-04-20T05:57:20.433Z,58.08
2023-04-20T05:59:46.944Z,58.25
2023-04-20T06:02:13.541Z,57.85
2023-04-20T06:04:40.240Z,57.45
2023-04-20T06:07:06.905Z,57.49
2023-04-20T06:09:33.403Z,57.34
2023-04-20T06:11:59.884Z,57.12
2023-04-20T06:14:26.388Z,57.81
2023-04-20T06:16:52.874Z,57.11
2023-04-20T06:19:19.383Z,57.34
2023-04-20T06:21:45.933Z,57.20
2023-04-20T06:24:12.408Z,57.45
2023-04-20T06:26:38.852Z,57.40
2023-04-20T06:29:05.313Z,56.85
2023-04-20T06:31:31.818Z,56.94
2023-04-20T06:33:58.384Z,56.77
2023-04-20T06:36:25.113Z,57.79
2023-04-20T06:38:51.600Z,57.31
2023-04-20T06:41:20.921Z,57.51
2023-04-20T06:43:47.395Z,56.81
2023-04-20T06:46:13.896Z,56.52
2023-04-20T06:48:40.635Z,56.76
2023-04-20T06:51:07.186Z,56.24
2023-04-20T06:53:33.685Z,55.74
2023-04-20T06:56:00.258Z,56.24
2023-04-20T06:58:26.824Z,56.45
2023-04-20T07:00:53.477Z,57.53
2023-04-20T07:03:20.127Z,57.21
2023-04-20T07:05:46.834Z,57.91
2023-04-20T07:08:13.440Z,57.11
2023-04-20T07:10:39.926Z,57.21
2023-04-20T07:13:06.514Z,57.50
2023-04-20T07:15:32.955Z,56.98
2023-04-20T07:17:59.434Z,57.14
2023-04-20T07:20:25.990Z,56.96
2023-04-20T07:22:52.467Z,56.49
2023-04-20T07:25:18.966Z,56.38
2023-04-20T07:27:45.439Z,57.67
2023-04-20T07:30:12.313Z,57.17
2023-04-20T07:32:40.393Z,56.62
2023-04-20T07:35:07.264Z,57.64
2023-04-20T07:37:34.276Z,57.73
2023-04-20T07:40:00.823Z,58.26
2023-04-20T07:42:27.268Z,57.94
2023-04-20T07:44:54.284Z,57.98
2023-04-20T07:47:20.834Z,58.39
2023-04-20T07:49:47.353Z,57.44
2023-04-20T07:52:16.794Z,57.41
2023-04-20T07:54:46.926Z,58.35
2023-04-20T07:57:13.525Z,58.47
2023-04-20T07:59:40.025Z,58.32
2023-04-20T08:02:06.626Z,58.50
2023-04-20T08:04:41.177Z,58.82
2023-04-20T08:07:13.484Z,58.80
2023-04-20T08:09:48.729Z,58.47
2023-04-20T08:12:15.325Z,57.91
2023-04-20T08:14:41.899Z,57.88
2023-04-20T08:17:08.459Z,58.04
2023-04-20T08:19:34.981Z,57.52
2023-04-20T08:22:02.317Z,57.53
2023-04-20T08:24:29.925Z,57.18
2023-04-20T08:26:56.680Z,56.75
2023-04-20T08:29:23.234Z,57.00
2023-04-20T08:31:51.615Z,56.92
2023-04-20T08:34:18.719Z,56.12
2023-04-20T08:36:45.342Z,57.48
2023-04-20T08:39:15.100Z,57.32
2023-04-20T08:41:41.806Z,56.73
2023-04-20T08:44:08.451Z,56.28
2023-04-20T08:46:35.900Z,56.00
2023-04-20T08:49:02.629Z,56.62
2023-04-20T08:51:29.362Z,57.70
2023-04-20T08:54:03.617Z,57.90
2023-04-20T08:56:41.492Z,59.47
2023-04-20T08:59:08.579Z,59.84
2023-04-20T09:01:36.290Z,60.29
2023-04-20T09:04:14.743Z,60.25
2023-04-20T09:06:47.991Z,59.98
2023-04-20T09:09:14.534Z,61.64
2023-04-20T09:11:41.192Z,61.62
2023-04-20T09:14:13.588Z,62.91
2023-04-20T09:16:50.491Z,64.23
2023-04-20T09:19:27.035Z,65.18
2023-04-20T09:21:55.936Z,64.77
2023-04-20T09:24:29.815Z,65.97
2023-04-20T09:26:56.594Z,65.53
2023-04-20T09:29:24.494Z,66.31
2023-04-20T09:31:51.777Z,65.83
2023-04-20T09:34:18.851Z,64.78
2023-04-20T09:36:48.366Z,63.75
2023-04-20T09:39:18.102Z,64.08
2023-04-20T09:41:45.114Z,65.84
2023-04-20T09:44:12.948Z,66.04
2023-04-20T09:46:41.610Z,65.99
2023-04-20T09:49:11.429Z,64.15
2023-04-20T09:51:42.983Z,66.72
2023-04-20T09:54:11.412Z,66.77
2023-04-20T09:56:38.931Z,66.09
2023-04-20T09:59:05.626Z,65.79
2023-04-20T10:01:33.796Z,69.20
2023-04-20T10:04:03.603Z,69.22
2023-04-20T10:06:34.465Z,69.10
2023-04-20T10:09:03.895Z,67.75
2023-04-20T10:11:41.110Z,67.40
2023-04-20T10:14:21.488Z,67.75
2023-04-20T10:17:00.871Z,65.73
2023-04-20T10:19:44.711Z,67.96
2023-04-20T10:22:26.814Z,67.36
2023-04-20T10:24:53.331Z,65.32
2023-04-20T10:27:21.526Z,65.83
2023-04-20T10:29:48.534Z,66.49
2023-04-20T10:32:26.551Z,67.78
2023-04-20T10:35:05.273Z,67.18
2023-04-20T10:37:32.542Z,68.24
2023-04-20T10:39:59.931Z,69.25
2023-04-20T10:42:26.517Z,66.83
2023-04-20T10:44:54.364Z,67.64
2023-04-20T10:47:29.522Z,66.83
2023-04-20T10:50:13.141Z,66.44
2023-04-20T10:52:41.802Z,65.46
2023-04-20T10:55:22.809Z,64.78
2023-04-20T10:57:50.317Z,64.49
2023-04-20T11:00:27.999Z,63.73
2023-04-20T11:02:57.712Z,62.88
2023-04-20T11:05:26.500Z,62.08
2023-04-20T11:07:54.845Z,61.93
2023-04-20T11:10:23.366Z,62.75
2023-04-20T11:12:49.959Z,62.08
2023-04-20T11:15:16.679Z,61.46
2023-04-20T11:17:43.610Z,61.55
2023-04-20T11:20:14.775Z,60.19
2023-04-20T11:22:45.727Z,59.30
2023-04-20T11:25:12.907Z,59.54
2023-04-20T11:27:40.167Z,59.14
2023-04-20T11:30:07.387Z,59.62
2023-04-20T11:32:35.509Z,58.80
2023-04-20T11:35:07.825Z,60.41
2023-04-20T11:37:46.272Z,60.68
2023-04-20T11:40:13.316Z,60.66
2023-04-20T11:42:39.889Z,62.08
2023-04-20T11:45:07.044Z,61.32
2023-04-20T11:47:33.822Z,61.50
2023-04-20T11:50:00.705Z,61.23
2023-04-20T11:52:27.677Z,60.92
2023-04-20T11:54:54.155Z,61.85
2023-04-20T11:57:20.636Z,61.04
2023-04-20T11:59:47.138Z,62.10
2023-04-20T12:02:14.244Z,61.24
2023-04-20T12:04:41.661Z,61.70
2023-04-20T12:07:08.448Z,62.37
2023-04-20T12:09:34.902Z,62.57
2023-04-20T12:12:01.948Z,64.15
2023-04-20T12:14:28.580Z,63.04
2023-04-20T12:16:56.761Z,64.19
2023-04-20T12:19:24.560Z,63.94
2023-04-20T12:21:51.071Z,65.56
2023-04-20T12:24:17.580Z,65.62
2023-04-20T12:26:44.302Z,68.48
2023-04-20T12:29:10.987Z,68.98
2023-04-20T12:31:37.707Z,68.21
2023-04-20T12:34:04.434Z,68.41
2023-04-20T12:36:31.041Z,68.42
2023-04-20T12:38:58.080Z,66.24
2023-04-20T12:41:24.791Z,68.15
2023-04-20T12:43:51.312Z,70.46
2023-04-20T12:46:18.291Z,71.03
2023-04-20T12:48:44.880Z,71.32
2023-04-20T12:51:12.489Z,70.64
2023-04-20T12:53:38.998Z,72.53
2023-04-20T12:56:06.286Z,70.00
2023-04-20T12:58:32.828Z,72.25
2023-04-20T13:00:59.330Z,71.98
2023-04-20T13:03:25.956Z,72.54
2023-04-20T13:05:52.461Z,72.50
2023-04-20T13:08:18.929Z,73.84
2023-04-20T13:10:45.528Z,72.95
2023-04-20T13:13:12.084Z,72.71
2023-04-20T13:15:39.480Z,73.99
2023-04-20T13:18:06.546Z,72.69
2023-04-20T13:20:33.167Z,75.74
2023-04-20T13:23:01.134Z,76.81
2023-04-20T13:25:31.419Z,78.38
2023-04-20T13:27:58.232Z,78.71
2023-04-20T13:30:25.449Z,78.35
2023-04-20T13:32:52.665Z,74.58
2023-04-20T13:35:19.164Z,76.76
2023-04-20T13:37:46.505Z,74.98
2023-04-20T13:40:13.494Z,74.00
2023-04-20T13:42:40.164Z,73.92
2023-04-20T13:45:07.794Z,69.68
2023-04-20T13:47:34.630Z,69.77
2023-04-20T13:50:01.207Z,69.36
2023-04-20T13:52:27.683Z,71.98
2023-04-20T13:54:54.250Z,67.73
2023-04-20T13:57:20.783Z,68.72
2023-04-20T13:59:47.287Z,68.32
2023-04-20T14:02:13.806Z,69.44
2023-04-20T14:04:40.382Z,68.97
2023-04-20T14:07:07.051Z,69.83
2023-04-20T14:09:33.563Z,69.60
2023-04-20T14:12:00.073Z,66.23
2023-04-20T14:14:26.530Z,66.01
2023-04-20T14:16:52.992Z,65.30
2023-04-20T14:19:19.482Z,64.46
2023-04-20T14:21:45.968Z,66.36
2023-04-20T14:24:13.020Z,65.61
2023-04-20T14:26:40.001Z,64.63
2023-04-20T14:29:06.590Z,64.15
2023-04-20T14:31:33.157Z,64.48
2023-04-20T14:33:59.781Z,63.10
2023-04-20T14:36:27.319Z,63.10
2023-04-20T14:38:53.872Z,63.29
2023-04-20T14:41:20.382Z,63.53
2023-04-20T14:43:47.237Z,63.59
2023-04-20T14:46:13.922Z,61.22
2023-04-20T14:48:40.515Z,60.63
2023-04-20T14:51:07.019Z,61.17
2023-04-20T14:53:33.682Z,61.11
2023-04-20T14:58:36.182Z,60.82
2023-04-20T15:01:03.852Z,61.84
2023-04-20T15:03:30.664Z,62.53
2023-04-20T15:06:00.676Z,60.12
2023-04-20T15:08:27.586Z,62.02
2023-04-20T15:10:54.113Z,61.19
2023-04-20T15:13:27.966Z,62.47
2023-04-20T15:15:55.406Z,62.45
2023-04-20T15:18:22.325Z,60.30
2023-04-20T15:20:51.204Z,59.55
2023-04-20T15:23:17.849Z,59.13
2023-04-20T15:25:44.339Z,59.60
2023-04-20T15:28:11.085Z,58.72
2023-04-20T15:30:37.745Z,59.76
2023-04-20T15:33:05.484Z,57.57
2023-04-20T15:35:32.480Z,58.32
2023-04-20T15:37:59.064Z,57.89
2023-04-20T15:40:25.842Z,58.04
2023-04-20T15:42:52.337Z,57.95
2023-04-20T15:45:18.798Z,56.78
2023-04-20T15:47:45.279Z,57.33
2023-04-20T15:50:11.747Z,57.32
2023-04-20T15:52:38.373Z,55.55
2023-04-20T15:55:05.365Z,57.38
2023-04-20T15:57:31.832Z,57.92
2023-04-20T15:59:58.428Z,57.80
2023-04-20T16:02:25.074Z,59.59
2023-04-20T16:04:51.885Z,57.95
2023-04-20T16:10:16.460Z,56.84
2023-04-20T16:12:52.986Z,57.14
2023-04-20T16:15:24.151Z,58.42
2023-04-20T16:17:50.670Z,57.53
2023-04-20T16:20:17.214Z,58.43
2023-04-20T16:22:43.936Z,57.63
2023-04-20T16:25:10.726Z,58.42
2023-04-20T16:27:37.227Z,58.67
2023-04-20T16:30:04.077Z,59.64
2023-04-20T16:32:30.623Z,59.04
2023-04-20T16:34:57.175Z,59.02
2023-04-20T16:37:23.686Z,58.94
2023-04-20T16:39:50.224Z,59.67
2023-04-20T16:42:16.721Z,60.61
2023-04-20T16:44:43.179Z,61.62
2023-04-20T16:47:09.725Z,61.63
2023-04-20T16:49:36.272Z,62.27
2023-04-20T16:52:02.799Z,61.00
2023-04-20T16:54:29.245Z,60.15
2023-04-20T16:56:55.764Z,60.50
2023-04-20T16:59:22.260Z,60.51
2023-04-20T17:01:49.234Z,59.50
2023-04-20T17:04:15.846Z,58.27
2023-04-20T17:06:42.488Z,56.13
2023-04-20T17:09:08.948Z,55.81
2023-04-20T17:11:35.505Z,55.19
2023-04-20T17:14:04.744Z,55.31
2023-04-20T17:16:34.323Z,55.30
2023-04-20T17:19:01.982Z,54.34
2023-04-20T17:21:28.449Z,54.53
2023-04-20T17:23:55.937Z,55.34
2023-04-20T17:26:22.688Z,55.18
2023-04-20T17:28:49.695Z,55.27
2023-04-20T17:31:16.541Z,54.40
2023-04-20T17:33:43.109Z,54.31
2023-04-20T17:36:09.675Z,54.91
2023-04-20T17:38:36.275Z,55.38
2023-04-20T17:41:03.172Z,56.24
2023-04-20T17:43:29.787Z,56.87
2023-04-20T17:45:56.644Z,57.95
2023-04-20T17:48:23.272Z,57.55
2023-04-20T17:50:51.212Z,58.03
2023-04-20T17:53:17.740Z,57.83
2023-04-20T17:55:44.223Z,59.07
2023-04-20T17:58:10.688Z,59.27
2023-04-20T18:00:37.159Z,60.03
2023-04-20T18:03:03.900Z,60.88
2023-04-20T18:05:30.465Z,60.88
2023-04-20T18:07:57.003Z,61.59
2023-04-20T18:10:23.445Z,62.27
2023-04-20T18:12:49.948Z,62.70
2023-04-20T18:15:16.747Z,62.65
2023-04-20T18:17:43.384Z,62.25
2023-04-20T18:20:10.351Z,62.19
2023-04-20T18:22:37.320Z,62.91
2023-04-20T18:25:04.680Z,62.09
2023-04-20T18:27:31.229Z,62.31
2023-04-20T18:29:57.769Z,60.93
2023-04-20T18:32:24.238Z,59.75
2023-04-20T18:34:50.766Z,61.31
2023-04-20T18:37:17.312Z,61.00
2023-04-20T18:39:43.790Z,60.88
2023-04-20T18:42:10.356Z,60.86
2023-04-20T18:44:37.025Z,61.41
2023-04-20T18:47:03.613Z,61.31
2023-04-20T18:49:30.160Z,61.44
2023-04-20T18:51:56.670Z,61.76
2023-04-20T18:54:23.177Z,61.44
2023-04-20T18:56:49.664Z,61.50
2023-04-20T18:59:16.150Z,62.02
2023-04-20T19:01:42.655Z,62.47
2023-04-20T19:04:09.232Z,61.92
2023-04-20T19:06:35.847Z,61.71
2023-04-20T19:09:02.322Z,62.52
2023-04-20T19:11:31.243Z,63.34
2023-04-20T19:13:57.704Z,62.50
2023-04-20T19:16:24.194Z,61.67
2023-04-20T19:18:50.781Z,62.21
2023-04-20T19:21:17.230Z,61.85
2023-04-20T19:23:43.757Z,61.98
2023-04-20T19:26:10.252Z,62.46
2023-04-20T19:28:36.849Z,62.20
2023-04-20T19:31:03.418Z,63.08
2023-04-20T19:33:29.943Z,63.88
2023-04-20T19:35:56.507Z,66.87
2023-04-20T19:38:23.012Z,65.57
2023-04-20T19:40:49.554Z,65.71
2023-04-20T19:43:16.228Z,63.93
2023-04-20T19:45:43.536Z,63.61
2023-04-20T19:48:10.071Z,63.01
2023-04-20T19:50:36.586Z,61.98
2023-04-20T19:53:03.070Z,62.12
2023-04-20T19:55:29.606Z,62.57
2023-04-20T19:57:56.091Z,62.23
2023-04-20T20:00:22.596Z,61.33
2023-04-20T20:02:49.263Z,60.48
2023-04-20T20:05:15.852Z,61.21
2023-04-20T20:07:42.605Z,61.22
2023-04-20T20:10:09.237Z,60.57
2023-04-20T20:12:35.763Z,60.35
2023-04-20T20:15:02.378Z,60.19
2023-04-20T20:17:28.900Z,60.28
2023-04-20T20:19:55.971Z,60.03
2023-04-20T20:22:22.618Z,60.60
2023-04-20T20:24:49.078Z,60.81
2023-04-20T20:27:15.545Z,60.22
2023-04-20T20:29:42.035Z,60.63
2023-04-20T20:32:08.547Z,61.16
2023-04-20T20:34:35.024Z,60.99
2023-04-20T20:37:01.505Z,61.22
2023-04-20T20:39:27.973Z,60.92
2023-04-20T20:41:54.562Z,61.11
2023-04-20T20:44:21.045Z,62.14
2023-04-20T20:46:47.635Z,61.75
2023-04-20T20:49:14.145Z,61.60
2023-04-20T20:51:40.621Z,61.23
2023-04-20T20:54:07.113Z,61.44
2023-04-20T20:56:33.745Z,61.35
2023-04-20T20:59:00.211Z,62.39
2023-04-20T21:01:26.717Z,62.27
2023-04-20T21:03:53.386Z,62.12
2023-04-20T21:06:19.988Z,62.14
2023-04-20T21:08:46.548Z,62.42
2023-04-20T21:11:13.097Z,62.62
2023-04-20T21:13:39.608Z,62.10
2023-04-20T21:16:06.232Z,61.71
2023-04-20T21:18:32.712Z,60.92
2023-04-20T21:20:59.214Z,60.80
2023-04-20T21:23:25.686Z,60.09
2023-04-20T21:25:52.173Z,60.98
2023-04-20T21:28:18.719Z,60.40
2023-04-20T21:30:45.266Z,59.96
2023-04-20T21:33:11.895Z,60.65
2023-04-20T21:35:38.392Z,61.35
2023-04-20T21:38:04.886Z,61.40
2023-04-20T21:40:31.393Z,61.52
2023-04-20T21:42:57.856Z,62.03
2023-04-20T21:45:24.432Z,61.71
2023-04-20T21:47:51.028Z,62.41
2023-04-20T21:50:17.635Z,61.98
2023-04-20T21:52:44.181Z,62.10
2023-04-20T21:55:10.648Z,61.83
2023-04-20T21:57:37.200Z,61.32
2023-04-20T22:00:03.927Z,60.66
2023-04-20T22:02:30.528Z,60.75
2023-04-20T22:04:57.153Z,60.04
2023-04-20T22:07:23.672Z,59.98
2023-04-20T22:09:50.149Z,59.86
2023-04-20T22:12:18.110Z,59.87
2023-04-20T22:14:46.144Z,59.72
2023-04-20T22:17:12.680Z,59.86
2023-04-20T22:19:39.158Z,61.66
2023-04-20T22:22:05.644Z,60.60
2023-04-20T22:24:32.144Z,61.15
2023-04-20T22:26:58.671Z,62.04
2023-04-20T22:29:25.175Z,62.23
2023-04-20T22:31:51.760Z,61.24
2023-04-20T22:34:18.317Z,61.44
2023-04-20T22:36:44.887Z,61.27
2023-04-20T22:39:11.454Z,61.59
2023-04-20T22:41:37.957Z,62.05
2023-04-20T22:44:04.395Z,62.03
2023-04-20T22:46:30.890Z,61.75
2023-04-20T22:48:57.397Z,61.37
2023-04-20T22:51:23.909Z,62.13
2023-04-20T22:53:50.367Z,63.10
2023-04-20T22:56:16.892Z,62.75
2023-04-20T22:58:43.386Z,62.62
2023-04-20T23:01:09.892Z,63.88
2023-04-20T23:03:36.857Z,64.06
2023-04-20T23:06:03.793Z,64.89
2023-04-20T23:08:30.266Z,65.38
2023-04-20T23:10:56.724Z,64.97
2023-04-20T23:13:23.259Z,67.06
2023-04-20T23:15:49.861Z,65.25
2023-04-20T23:18:16.325Z,64.49
2023-04-20T23:20:42.813Z,63.13
2023-04-20T23:23:09.308Z,63.44
2023-04-20T23:25:35.899Z,63.88
2023-04-20T23:28:02.434Z,64.07
2023-04-20T23:30:28.928Z,63.37
2023-04-20T23:32:55.510Z,62.62
2023-04-20T23:35:22.005Z,61.39
2023-04-20T23:37:48.668Z,61.07
2023-04-20T23:40:15.185Z,59.82
2023-04-20T23:42:41.722Z,60.43
2023-04-20T23:45:08.771Z,60.90
2023-04-20T23:47:35.253Z,60.00
2023-04-20T23:50:01.738Z,59.95
2023-04-20T23:52:28.170Z,60.03
2023-04-20T23:54:54.651Z,60.49
2023-04-20T23:57:21.168Z,60.58
2023-04-20T23:59:47.676Z,60.47
